Time;durP1;ratioP1;P1;durP2;ratioP2;P2;SDS_P1;SDS_P2;PMS_P1;PMS_P2;Temp;Humidity;BMP_temperature;BMP_pressure;BME280_temperature;BME280_humidity;BME280_pressure;Samples;Min_cycle;Max_cycle;Signal;HPM_P1;HPM_P2
2023/07/19 00:00:13;;;;;;;6.10;2.78;;;;;;;15.03;100.00;100576.47;690863;28;769;-59
2023/07/19 00:00:39;;;;;;;5.82;2.88;;;;;;;14.97;100.00;100575.72;687363;28;1623;-58
2023/07/19 00:01:00;;;;;;;5.60;2.90;;;;;;;14.96;100.00;100583.66;687296;28;1460;-59
2023/07/19 00:01:20;;;;;;;5.47;2.73;;;;;;;14.95;100.00;100580.16;687675;28;4491;-58
2023/07/19 00:01:41;;;;;;;5.50;2.80;;;;;;;14.95;100.00;100577.53;688581;28;1915;-58
2023/07/19 00:02:01;;;;;;;6.20;3.17;;;;;;;14.95;100.00;100577.53;689797;28;1476;-58
2023/07/19 00:02:21;;;;;;;5.90;3.10;;;;;;;14.92;100.00;100580.22;690739;28;1248;-58
2023/07/19 00:02:42;;;;;;;6.95;3.10;;;;;;;14.92;100.00;100577.59;690346;28;964;-58
2023/07/19 00:03:02;;;;;;;5.87;2.83;;;;;;;14.91;100.00;100580.25;689587;28;1452;-58
2023/07/19 00:03:22;;;;;;;4.68;2.65;;;;;;;14.90;100.00;100571.50;691197;28;833;-58
2023/07/19 00:03:43;;;;;;;5.00;2.70;;;;;;;14.89;100.00;100580.31;690617;28;963;-58
2023/07/19 00:04:03;;;;;;;5.47;2.70;;;;;;;14.88;100.00;100581.19;690025;28;1516;-58
2023/07/19 00:04:24;;;;;;;4.53;2.53;;;;;;;14.87;100.00;100578.59;690238;28;4496;-58
2023/07/19 00:04:45;;;;;;;6.28;2.83;;;;;;;14.87;100.00;100579.50;690112;28;893;-58
2023/07/19 00:05:08;;;;;;;5.33;3.00;;;;;;;14.89;100.00;100580.31;690033;28;1540;-58
2023/07/19 00:05:31;;;;;;;4.63;2.78;;;;;;;14.89;100.00;100574.19;690797;28;996;-58
2023/07/19 00:05:52;;;;;;;5.22;2.92;;;;;;;14.88;100.00;100581.19;689130;28;1554;-58
2023/07/19 00:06:12;;;;;;;4.75;2.70;;;;;;;14.87;100.00;100582.13;690787;28;1275;-58
2023/07/19 00:06:32;;;;;;;4.93;2.80;;;;;;;14.89;100.00;100580.31;691028;28;1098;-58
2023/07/19 00:06:53;;;;;;;5.20;2.77;;;;;;;14.87;100.00;100573.34;689516;28;1535;-58
2023/07/19 00:07:16;;;;;;;5.10;2.80;;;;;;;14.86;100.00;100574.28;690801;28;4476;-58
2023/07/19 00:07:37;;;;;;;4.78;2.75;;;;;;;14.84;100.00;100576.91;690868;28;1037;-58
2023/07/19 00:07:57;;;;;;;5.07;2.78;;;;;;;14.86;100.00;100576.91;689236;28;1483;-59
2023/07/19 00:08:17;;;;;;;5.07;3.00;;;;;;;14.85;100.00;100573.38;691270;28;829;-58
2023/07/19 00:08:38;;;;;;;5.28;2.80;;;;;;;14.84;100.00;100573.41;690747;28;920;-58
2023/07/19 00:08:58;;;;;;;4.97;2.70;;;;;;;14.85;100.00;100578.66;689098;28;1520;-58
2023/07/19 00:09:18;;;;;;;5.30;2.70;;;;;;;14.84;100.00;100578.69;690982;28;1256;-59
2023/07/19 00:09:39;;;;;;;6.40;2.80;;;;;;;14.85;100.00;100572.53;691007;28;1055;-59
2023/07/19 00:09:59;;;;;;;5.60;2.70;;;;;;;14.84;100.00;100574.28;689382;28;1452;-58
2023/07/19 00:10:20;;;;;;;4.60;2.90;;;;;;;14.81;100.00;100575.25;690295;28;4454;-58
2023/07/19 00:10:40;;;;;;;4.47;2.80;;;;;;;14.81;100.00;100574.34;691129;28;1027;-58
2023/07/19 00:11:01;;;;;;;4.85;2.67;;;;;;;14.79;100.00;100578.81;689210;28;1531;-58
2023/07/19 00:11:21;;;;;;;5.27;3.03;;;;;;;14.81;100.00;100574.34;690837;28;900;-58
2023/07/19 00:11:42;;;;;;;5.40;2.80;;;;;;;14.79;100.00;100577.03;690890;28;924;-58
2023/07/19 00:12:03;;;;;;;5.03;2.77;;;;;;;14.77;100.00;100568.31;689534;28;1479;-58
2023/07/19 00:12:23;;;;;;;4.75;2.90;;;;;;;14.76;100.00;100576.22;690732;28;873;-58
2023/07/19 00:12:43;;;;;;;4.70;2.83;;;;;;;14.76;100.00;100576.22;690687;28;1296;-58
2023/07/19 00:13:04;;;;;;;5.23;2.90;;;;;;;14.77;100.00;100575.31;689388;28;1528;-58
2023/07/19 00:13:24;;;;;;;5.03;2.80;;;;;;;14.78;100.00;100571.81;690397;28;4345;-59
2023/07/19 00:13:44;;;;;;;5.30;2.60;;;;;;;14.78;100.00;100575.28;691095;28;959;-58
2023/07/19 00:14:05;;;;;;;5.50;2.90;;;;;;;14.77;100.00;100578.84;690163;28;1574;-58
2023/07/19 00:14:26;;;;;;;4.97;2.85;;;;;;;14.78;100.00;100571.81;690326;28;940;-58
2023/07/19 00:14:46;;;;;;;5.27;3.10;;;;;;;14.75;100.00;100571.88;690718;28;893;-58
2023/07/19 00:15:07;;;;;;;5.05;2.78;;;;;;;14.72;100.00;100575.44;689910;28;1595;-58
2023/07/19 00:15:30;;;;;;;4.32;2.53;;;;;;;14.73;100.00;100578.94;688338;28;995;-58
2023/07/19 00:15:50;;;;;;;4.68;2.70;;;;;;;14.75;100.00;100575.38;690861;28;1023;-58
2023/07/19 00:16:10;;;;;;;5.25;2.70;;;;;;;14.76;100.00;100571.84;689702;28;4539;-59
2023/07/19 00:16:31;;;;;;;5.33;2.70;;;;;;;14.75;100.00;100574.50;690615;28;840;-58
2023/07/19 00:16:52;;;;;;;5.40;2.72;;;;;;;14.69;100.00;100566.75;689922;28;1558;-59
2023/07/19 00:17:12;;;;;;;5.78;2.67;;;;;;;14.69;100.00;100570.25;690737;28;863;-59
2023/07/19 00:17:32;;;;;;;5.03;2.70;;;;;;;14.70;100.00;100568.50;690509;28;1117;-58
2023/07/19 00:17:53;;;;;;;5.47;2.70;;;;;;;14.69;100.00;100569.38;689795;28;1511;-58
2023/07/19 00:18:13;;;;;;;5.65;2.72;;;;;;;14.65;100.00;100565.97;691130;28;944;-58
2023/07/19 00:18:33;;;;;;;5.23;2.83;;;;;;;14.66;100.00;100569.47;690310;28;995;-58
2023/07/19 00:18:54;;;;;;;5.97;2.87;;;;;;;14.66;100.00;100570.31;690080;28;1496;-58
2023/07/19 00:19:14;;;;;;;5.40;2.70;;;;;;;14.68;100.00;100568.53;689970;28;4510;-59
2023/07/19 00:19:35;;;;;;;4.90;2.60;;;;;;;14.67;100.00;100568.56;690219;28;781;-59
2023/07/19 00:19:55;;;;;;;4.90;2.70;;;;;;;14.64;100.00;100572.97;688772;28;3324;-58
2023/07/19 00:20:15;;;;;;;4.83;2.80;;;;;;;14.64;100.00;100561.59;691126;28;832;-58
2023/07/19 00:20:36;;;;;;;4.87;2.70;;;;;;;14.62;100.00;100569.53;690344;28;893;-58
2023/07/19 00:20:56;;;;;;;6.10;2.80;;;;;;;14.61;100.00;100562.50;689836;28;1473;-58
2023/07/19 00:21:16;;;;;;;4.63;2.47;;;;;;;14.62;100.00;100556.38;690688;28;1098;-58
2023/07/19 00:21:37;;;;;;;6.25;2.70;;;;;;;14.62;100.00;100564.28;690444;28;1975;-58
2023/07/19 00:21:57;;;;;;;6.90;2.90;;;;;;;14.59;100.00;100561.69;690018;28;1445;-58
2023/07/19 00:22:18;;;;;;;5.03;2.70;;;;;;;14.58;100.00;100562.59;690820;28;4444;-59
2023/07/19 00:22:38;;;;;;;5.30;2.75;;;;;;;14.56;100.00;100560.88;689922;28;987;-58
2023/07/19 00:22:58;;;;;;;5.67;2.80;;;;;;;14.51;100.00;100566.25;690103;28;1560;-58
2023/07/19 00:23:19;;;;;;;5.43;2.72;;;;;;;14.48;100.00;100561.94;691053;28;907;-58
2023/07/19 00:23:39;;;;;;;5.80;2.80;;;;;;;14.48;100.00;100566.31;690425;28;1474;-59
2023/07/19 00:24:00;;;;;;;6.95;3.00;;;;;;;14.51;100.00;100561.00;689510;28;1432;-58
2023/07/19 00:24:20;;;;;;;5.00;2.93;;;;;;;14.52;100.00;100559.22;690845;28;1078;-59
2023/07/19 00:24:40;;;;;;;5.63;3.20;;;;;;;14.50;100.00;100561.88;690531;28;928;-59
2023/07/19 00:25:01;;;;;;;5.72;2.80;;;;;;;14.51;100.00;100560.13;689861;28;1500;-59
2023/07/19 00:25:21;;;;;;;5.00;2.60;;;;;;;14.50;100.00;100559.25;689928;28;4429;-59
2023/07/19 00:25:42;;;;;;;5.75;2.60;;;;;;;14.48;100.00;100555.78;690783;28;1024;-58
2023/07/19 00:26:02;;;;;;;6.93;2.80;;;;;;;14.47;100.00;100554.06;689199;28;1452;-58
2023/07/19 00:26:22;;;;;;;6.60;2.80;;;;;;;14.47;100.00;100554.06;691031;28;963;-58
2023/07/19 00:26:43;;;;;;;5.37;2.60;;;;;;;14.43;100.00;100557.69;690557;28;1045;-58
2023/07/19 00:27:04;;;;;;;4.97;3.05;;;;;;;14.43;100.00;100555.91;686644;28;1470;-58
2023/07/19 00:27:25;;;;;;;4.75;2.90;;;;;;;14.43;100.00;100555.03;688006;28;929;-58
2023/07/19 00:27:48;;;;;;;6.07;2.90;;;;;;;14.43;100.00;100557.69;685542;28;992;-59
2023/07/19 00:28:08;;;;;;;4.95;2.90;;;;;;;14.43;100.00;100568.19;683436;28;4632;-59
2023/07/19 00:28:29;;;;;;;5.67;2.97;;;;;;;14.42;100.00;100556.78;685442;28;1685;-58
2023/07/19 00:28:49;;;;;;;6.83;2.90;;;;;;;14.43;100.00;100563.78;685949;28;1069;-59
2023/07/19 00:29:09;;;;;;;7.22;3.00;;;;;;;14.41;100.00;100568.22;685765;28;1546;-58
2023/07/19 00:29:31;;;;;;;8.07;3.25;;;;;;;14.43;100.00;100565.56;684860;28;1264;-58
2023/07/19 00:29:52;;;;;;;7.70;2.92;;;;;;;14.46;100.00;100557.59;685061;28;1611;-55
2023/07/19 00:30:12;;;;;;;5.00;2.70;;;;;;;14.53;100.00;100556.56;688259;28;901;-58
2023/07/19 00:30:33;;;;;;;5.20;2.97;;;;;;;14.53;100.00;100559.19;687251;28;993;-58
2023/07/19 00:31:03;;;;;;;4.97;2.90;;;;;;;14.52;100.00;100557.44;685357;28;1562;-58
2023/07/19 00:31:23;;;;;;;5.20;2.65;;;;;;;14.48;100.00;100554.03;684363;28;4732;-58
2023/07/19 00:31:44;;;;;;;5.13;2.80;;;;;;;14.50;100.00;100559.25;683395;28;1377;-58
2023/07/19 00:32:05;;;;;;;5.53;2.72;;;;;;;14.52;100.00;100561.84;683960;28;1409;-58
2023/07/19 00:32:26;;;;;;;4.53;2.80;;;;;;;14.52;100.00;100562.69;682435;28;1379;-58
2023/07/19 00:32:46;;;;;;;4.72;2.50;;;;;;;14.50;100.00;100558.41;685836;28;1307;-58
2023/07/19 00:33:06;;;;;;;5.73;2.70;;;;;;;14.44;100.00;100557.63;685904;28;1545;-59
2023/07/19 00:33:27;;;;;;;6.65;2.88;;;;;;;14.44;100.00;100556.75;687250;28;975;-58
2023/07/19 00:33:48;;;;;;;6.00;2.80;;;;;;;14.41;100.00;100560.34;687800;28;928;-58
2023/07/19 00:34:09;;;;;;;5.07;2.80;;;;;;;14.40;100.00;100555.09;686050;28;4624;-59
2023/07/19 00:34:30;;;;;;;5.13;2.97;;;;;;;14.40;100.00;100555.09;688029;28;929;-58
2023/07/19 00:34:51;;;;;;;5.15;2.70;;;;;;;14.35;100.00;100559.59;685719;28;1461;-58
2023/07/19 00:35:12;;;;;;;5.53;2.72;;;;;;;14.32;100.00;100550.03;683745;28;1351;-58
2023/07/19 00:35:33;;;;;;;5.50;2.65;;;;;;;14.33;100.00;100556.13;682820;28;897;-58
2023/07/19 00:35:54;;;;;;;5.73;2.70;;;;;;;14.29;100.00;100553.56;681208;28;1592;-59
2023/07/19 00:36:14;;;;;;;5.00;2.60;;;;;;;14.27;100.00;100547.50;685642;28;1038;-59
2023/07/19 00:36:35;;;;;;;5.07;2.88;;;;;;;14.27;100.00;100547.50;683093;28;814;-58
2023/07/19 00:36:55;;;;;;;5.70;3.10;;;;;;;14.29;100.00;100550.09;681936;28;1587;-58
2023/07/19 00:37:15;;;;;;;6.22;2.80;;;;;;;14.31;100.00;100549.13;682351;28;5219;-59
2023/07/19 00:37:36;;;;;;;4.93;2.77;;;;;;;14.30;100.00;100546.53;685400;28;856;-58
2023/07/19 00:37:57;;;;;;;5.87;2.90;;;;;;;14.30;100.00;100547.44;686171;28;1476;-58
2023/07/19 00:38:17;;;;;;;5.20;2.80;;;;;;;14.28;100.00;100546.56;690916;28;939;-58
2023/07/19 00:38:37;;;;;;;4.60;2.60;;;;;;;14.36;100.00;100545.53;690404;28;1146;-58
2023/07/19 00:38:58;;;;;;;4.50;2.57;;;;;;;14.36;100.00;100550.78;689792;28;1698;-58
2023/07/19 00:39:18;;;;;;;5.53;2.83;;;;;;;14.36;100.00;100549.06;690697;28;865;-59
2023/07/19 00:39:39;;;;;;;4.87;2.87;;;;;;;14.34;100.00;100547.34;687548;28;1274;-58
2023/07/19 00:40:00;;;;;;;6.13;3.00;;;;;;;14.33;100.00;100545.63;684234;28;1684;-58
2023/07/19 00:40:20;;;;;;;5.17;2.77;;;;;;;14.30;100.00;100547.44;685068;28;4411;-59
2023/07/19 00:40:41;;;;;;;5.05;2.80;;;;;;;14.30;100.00;100547.44;684862;28;999;-59
2023/07/19 00:41:02;;;;;;;5.85;3.03;;;;;;;14.29;100.00;100545.69;684039;28;1454;-58
2023/07/19 00:41:23;;;;;;;5.80;3.15;;;;;;;14.30;100.00;100549.16;688040;28;1430;-58
2023/07/19 00:41:45;;;;;;;5.65;2.90;;;;;;;14.31;100.00;100549.13;685315;28;1469;-58
2023/07/19 00:42:06;;;;;;;5.28;2.60;;;;;;;14.33;100.00;100549.13;683919;28;1454;-59
2023/07/19 00:42:26;;;;;;;5.05;2.80;;;;;;;14.31;100.00;100538.63;685156;28;5415;-58
2023/07/19 00:42:46;;;;;;;5.70;2.87;;;;;;;14.31;100.00;100546.50;684859;28;956;-58
2023/07/19 00:43:10;;;;;;;4.97;3.03;;;;;;;14.35;100.00;100549.09;681981;28;1267;-59
2023/07/19 00:43:31;;;;;;;5.10;2.85;;;;;;;14.36;100.00;100546.41;685237;28;4995;-58
2023/07/19 00:43:51;;;;;;;5.85;3.00;;;;;;;14.35;100.00;100549.94;684973;28;893;-58
2023/07/19 00:44:11;;;;;;;5.60;3.00;;;;;;;14.36;100.00;100549.06;686220;28;1464;-58
2023/07/19 00:44:32;;;;;;;5.07;2.90;;;;;;;14.36;100.00;100553.44;688067;28;1339;-58
2023/07/19 00:44:53;;;;;;;4.20;2.50;;;;;;;14.36;100.00;100550.78;684104;28;1599;-57
2023/07/19 00:45:13;;;;;;;4.77;2.60;;;;;;;14.34;100.00;100544.72;685453;28;889;-58
2023/07/19 00:45:34;;;;;;;5.43;2.95;;;;;;;14.34;100.00;100539.47;685720;28;908;-58
2023/07/19 00:45:55;;;;;;;5.23;3.03;;;;;;;14.33;100.00;100550.88;683962;28;1502;-59
2023/07/19 00:46:16;;;;;;;5.28;3.05;;;;;;;14.31;100.00;100548.28;684131;28;4365;-59
2023/07/19 00:46:37;;;;;;;4.18;2.58;;;;;;;14.27;100.00;100546.63;683118;28;1022;-58
2023/07/19 00:47:00;;;;;;;5.20;3.10;;;;;;;14.27;100.00;100547.50;683846;28;1544;-58
2023/07/19 00:47:21;;;;;;;5.13;2.88;;;;;;;14.28;100.00;100543.09;687236;28;803;-58
2023/07/19 00:47:41;;;;;;;4.97;2.90;;;;;;;14.29;100.00;100545.69;688032;28;1245;-58
2023/07/19 00:48:02;;;;;;;5.13;2.70;;;;;;;14.28;100.00;100543.09;686721;28;1504;-58
2023/07/19 00:48:25;;;;;;;5.63;2.90;;;;;;;14.26;100.00;100545.75;690558;28;915;-58
2023/07/19 00:48:45;;;;;;;5.45;2.90;;;;;;;14.29;100.00;100553.56;688786;28;1125;-58
2023/07/19 00:49:06;;;;;;;5.53;3.00;;;;;;;14.30;100.00;100546.53;689188;28;1464;-58
2023/07/19 00:49:27;;;;;;;5.28;2.85;;;;;;;14.29;100.00;100553.56;690138;28;4592;-58
2023/07/19 00:49:47;;;;;;;5.70;2.88;;;;;;;14.27;100.00;100550.13;690834;28;1833;-58
2023/07/19 00:50:08;;;;;;;5.83;3.10;;;;;;;14.25;100.00;100551.91;689085;28;1582;-58
2023/07/19 00:50:29;;;;;;;5.88;3.20;;;;;;;14.24;100.00;100550.16;690196;28;1042;-58
2023/07/19 00:50:51;;;;;;;5.43;3.05;;;;;;;14.25;100.00;100548.44;690770;28;912;-58
2023/07/19 00:51:11;;;;;;;5.88;3.10;;;;;;;14.26;100.00;100542.25;689255;28;2910;-58
2023/07/19 00:51:32;;;;;;;4.78;2.60;;;;;;;14.27;100.00;100546.63;690367;28;884;-58
2023/07/19 00:51:53;;;;;;;4.93;2.90;;;;;;;14.27;100.00;100552.75;684223;28;1491;-58
2023/07/19 00:52:13;;;;;;;5.87;2.83;;;;;;;14.26;100.00;100551.03;684228;28;4432;-58
2023/07/19 00:52:34;;;;;;;5.10;2.70;;;;;;;14.25;100.00;100551.06;687632;28;908;-58
2023/07/19 00:52:54;;;;;;;5.28;3.00;;;;;;;14.25;100.00;100551.91;687219;28;1587;-58
2023/07/19 00:53:16;;;;;;;5.17;2.80;;;;;;;14.24;100.00;100549.31;684580;28;1191;-58
2023/07/19 00:53:39;;;;;;;5.28;2.75;;;;;;;14.25;100.00;100546.66;682835;29;1265;-59
2023/07/19 00:53:59;;;;;;;5.70;2.53;;;;;;;14.23;100.00;100543.22;681000;28;1510;-58
2023/07/19 00:54:21;;;;;;;5.10;2.50;;;;;;;14.23;100.00;100547.56;681262;28;1337;-58
2023/07/19 00:54:41;;;;;;;5.43;2.78;;;;;;;14.21;100.00;100542.34;683618;28;802;-59
2023/07/19 00:55:02;;;;;;;4.97;2.80;;;;;;;14.20;100.00;100543.25;685029;28;1507;-58
2023/07/19 00:55:22;;;;;;;4.88;2.80;;;;;;;14.20;100.00;100548.50;687391;28;5239;-58
2023/07/19 00:55:47;;;;;;;6.03;3.05;;;;;;;14.20;100.00;100545.88;688042;28;1166;-58
2023/07/19 00:56:09;;;;;;;6.63;3.20;;;;;;;14.20;100.00;100543.25;687839;28;1684;-58
2023/07/19 00:56:32;;;;;;;6.05;3.20;;;;;;;14.19;100.00;100540.66;690245;28;849;-58
2023/07/19 00:56:52;;;;;;;5.70;3.10;;;;;;;14.16;100.00;100544.22;686906;28;1548;-58
2023/07/19 00:57:13;;;;;;;5.72;2.90;;;;;;;14.13;100.00;100547.78;687909;28;1039;-58
2023/07/19 00:57:34;;;;;;;6.63;2.87;;;;;;;14.12;100.00;100542.53;688361;28;913;-58
2023/07/19 00:57:54;;;;;;;5.68;3.10;;;;;;;14.09;100.00;100548.72;686005;28;1654;-58
2023/07/19 00:58:17;;;;;;;5.68;3.00;;;;;;;14.09;100.00;100546.09;684848;28;4460;-58
2023/07/19 00:58:38;;;;;;;4.88;2.80;;;;;;;14.08;100.00;100543.50;682622;28;2099;-58
2023/07/19 00:59:01;;;;;;;4.88;2.90;;;;;;;14.09;100.00;100547.88;684311;28;1457;-58
2023/07/19 00:59:22;;;;;;;4.53;2.72;;;;;;;14.08;100.00;100541.75;684957;28;968;-58
2023/07/19 00:59:43;;;;;;;6.00;2.90;;;;;;;14.08;100.00;100544.41;686202;28;921;-58
2023/07/19 01:00:05;;;;;;;5.50;2.80;;;;;;;14.09;100.00;100546.09;687811;28;1445;-58
2023/07/19 01:00:26;;;;;;;5.05;2.92;;;;;;;14.09;100.00;100542.63;689443;28;1450;-59
2023/07/19 01:00:47;;;;;;;6.30;3.38;;;;;;;14.09;100.00;100543.47;690228;28;971;-58
2023/07/19 01:01:07;;;;;;;5.30;3.10;;;;;;;14.08;100.00;100541.75;689339;28;1354;-58
2023/07/19 01:01:28;;;;;;;4.93;3.00;;;;;;;14.09;100.00;100540.00;683866;28;4385;-58
2023/07/19 01:01:49;;;;;;;5.53;2.95;;;;;;;14.11;100.00;100536.44;682594;28;861;-59
2023/07/19 01:02:12;;;;;;;5.55;2.85;;;;;;;14.13;100.00;100539.88;681575;29;1636;-58
2023/07/19 01:02:32;;;;;;;5.80;2.92;;;;;;;14.13;100.00;100549.53;682531;28;2110;-59
2023/07/19 01:02:53;;;;;;;5.82;3.00;;;;;;;14.12;100.00;100548.69;683931;28;1478;-58
2023/07/19 01:03:18;;;;;;;4.95;2.92;;;;;;;14.11;100.00;100539.06;687039;28;981;-58
2023/07/19 01:03:38;;;;;;;4.75;2.70;;;;;;;14.09;100.00;100543.47;686804;28;2166;-58
2023/07/19 01:03:58;;;;;;;5.30;2.97;;;;;;;14.10;100.00;100539.09;687856;28;1686;-58
2023/07/19 01:04:19;;;;;;;5.37;2.87;;;;;;;14.10;100.00;100541.72;689792;28;4419;-58
2023/07/19 01:04:39;;;;;;;4.78;2.70;;;;;;;14.08;100.00;100539.13;690381;28;920;-58
2023/07/19 01:05:00;;;;;;;5.10;2.87;;;;;;;14.06;100.00;100538.28;686740;28;1478;-58
2023/07/19 01:05:20;;;;;;;6.00;2.90;;;;;;;14.06;100.00;100540.06;685250;28;1154;-58
2023/07/19 01:05:41;;;;;;;6.50;2.87;;;;;;;14.04;100.00;100536.59;687558;28;1031;-58
2023/07/19 01:06:03;;;;;;;5.07;2.97;;;;;;;14.01;100.00;100542.81;684279;28;2014;-58
2023/07/19 01:06:24;;;;;;;4.32;2.78;;;;;;;14.03;100.00;100538.34;683447;28;1330;-58
2023/07/19 01:06:44;;;;;;;4.55;2.80;;;;;;;14.08;100.00;100536.50;682349;28;1583;-58
2023/07/19 01:07:05;;;;;;;5.20;2.80;;;;;;;14.13;100.00;100539.03;681591;28;1562;-59
2023/07/19 01:07:25;;;;;;;5.72;3.17;;;;;;;14.22;100.00;100536.22;684795;28;4480;-58
2023/07/19 01:07:46;;;;;;;5.87;3.17;;;;;;;14.23;100.00;100532.69;684593;28;1517;-59
2023/07/19 01:08:06;;;;;;;4.55;2.75;;;;;;;14.21;100.00;100542.34;684202;28;1489;-58
2023/07/19 01:08:27;;;;;;;4.47;2.65;;;;;;;14.21;100.00;100537.09;685399;28;1012;-59
2023/07/19 01:08:49;;;;;;;4.72;2.85;;;;;;;14.20;100.00;100535.34;688264;28;810;-58
2023/07/19 01:09:13;;;;;;;4.78;2.88;;;;;;;14.20;100.00;100540.63;689126;28;1504;-58
2023/07/19 01:09:35;;;;;;;4.85;2.80;;;;;;;14.20;100.00;100540.63;688905;28;934;-58
2023/07/19 01:09:55;;;;;;;5.38;2.88;;;;;;;14.16;100.00;100541.59;689049;28;1609;-58
2023/07/19 01:10:16;;;;;;;5.93;2.92;;;;;;;14.10;100.00;100539.09;687625;28;4603;-58
2023/07/19 01:10:37;;;;;;;5.43;2.85;;;;;;;14.10;100.00;100533.84;687946;28;823;-58
2023/07/19 01:10:58;;;;;;;4.80;2.90;;;;;;;14.09;100.00;100538.22;684951;28;1549;-59
2023/07/19 01:11:18;;;;;;;5.43;3.00;;;;;;;14.10;100.00;100539.09;683034;28;829;-58
2023/07/19 01:11:39;;;;;;;5.55;2.80;;;;;;;14.09;100.00;100538.22;682619;28;1357;-59
2023/07/19 01:12:00;;;;;;;5.90;2.90;;;;;;;14.09;100.00;100537.38;681579;28;1490;-58
2023/07/19 01:12:24;;;;;;;5.60;3.20;;;;;;;14.10;100.00;100534.69;685084;28;813;-58
2023/07/19 01:12:44;;;;;;;5.43;3.05;;;;;;;14.08;100.00;100538.25;685310;28;1265;-58
2023/07/19 01:13:09;;;;;;;5.47;2.80;;;;;;;14.04;100.00;100540.09;686496;28;1520;-59
2023/07/19 01:13:30;;;;;;;5.78;3.05;;;;;;;14.05;100.00;100533.06;687804;28;4901;-59
2023/07/19 01:13:54;;;;;;;6.18;3.20;;;;;;;14.04;100.00;100524.34;688016;28;904;-58
2023/07/19 01:14:14;;;;;;;6.60;2.90;;;;;;;14.00;100.00;100533.19;685788;28;998;-58
2023/07/19 01:14:34;;;;;;;4.85;2.70;;;;;;;13.98;100.00;100531.47;684576;28;901;-59
2023/07/19 01:14:55;;;;;;;6.33;3.00;;;;;;;13.96;100.00;100527.09;679996;28;1628;-58
2023/07/19 01:15:15;;;;;;;5.05;2.70;;;;;;;13.98;100.00;100534.97;679134;29;1188;-58
2023/07/19 01:15:36;;;;;;;5.60;3.00;;;;;;;14.00;100.00;100529.66;681769;28;1613;-58
2023/07/19 01:15:57;;;;;;;6.45;2.90;;;;;;;14.01;100.00;100532.28;683702;28;2268;-58
2023/07/19 01:16:17;;;;;;;5.57;2.80;;;;;;;14.00;100.00;100527.03;684667;28;4359;-59
2023/07/19 01:16:38;;;;;;;5.80;2.90;;;;;;;13.96;100.00;100523.63;688089;28;753;-58
2023/07/19 01:16:58;;;;;;;5.00;3.10;;;;;;;13.98;100.00;100520.97;684344;28;1461;-58
2023/07/19 01:17:19;;;;;;;5.50;2.93;;;;;;;14.00;100.00;100521.78;684687;28;865;-58
2023/07/19 01:17:39;;;;;;;5.10;2.70;;;;;;;13.99;100.00;100520.06;687369;28;1055;-59
2023/07/19 01:18:00;;;;;;;4.83;2.80;;;;;;;14.02;100.00;100520.84;683835;28;1596;-58
2023/07/19 01:18:20;;;;;;;5.00;2.90;;;;;;;14.06;100.00;100519.03;684581;28;1531;-59
2023/07/19 01:18:41;;;;;;;4.93;2.90;;;;;;;14.07;100.00;100515.50;685619;28;1555;-58
2023/07/19 01:19:01;;;;;;;5.53;2.70;;;;;;;14.06;100.00;100519.03;686930;28;1580;-58
2023/07/19 01:19:21;;;;;;;5.37;2.90;;;;;;;14.04;100.00;100515.56;684018;28;4459;-58
2023/07/19 01:19:44;;;;;;;6.40;3.00;;;;;;;14.09;100.00;100516.34;685882;28;813;-58
2023/07/19 01:20:08;;;;;;;6.30;2.75;;;;;;;14.10;100.00;100518.94;686433;28;1520;-58
2023/07/19 01:20:29;;;;;;;5.00;2.80;;;;;;;14.10;100.00;100518.94;683776;28;2158;-58
2023/07/19 01:20:50;;;;;;;5.43;2.90;;;;;;;14.07;100.00;100519.00;685712;28;865;-58
2023/07/19 01:21:10;;;;;;;5.20;2.80;;;;;;;14.08;100.00;100514.59;686113;28;1633;-59
2023/07/19 01:21:30;;;;;;;4.43;2.70;;;;;;;14.08;100.00;100514.59;689764;28;1918;-56
2023/07/19 01:21:55;;;;;;;4.60;2.70;;;;;;;14.07;100.00;100515.50;689239;28;809;-58
2023/07/19 01:22:15;;;;;;;5.82;2.90;;;;;;;14.10;100.00;100516.31;688546;28;4549;-58
2023/07/19 01:22:36;;;;;;;6.43;3.00;;;;;;;14.09;100.00;100511.06;687230;28;786;-58
2023/07/19 01:22:57;;;;;;;5.03;2.90;;;;;;;14.05;100.00;100505.03;684356;28;1482;-58
2023/07/19 01:23:18;;;;;;;6.38;2.83;;;;;;;14.07;100.00;100512.88;685307;28;904;-58
2023/07/19 01:23:39;;;;;;;5.73;2.80;;;;;;;14.06;100.00;100508.53;684458;28;861;-58
2023/07/19 01:23:59;;;;;;;4.90;2.58;;;;;;;14.05;100.00;100514.66;684219;28;1620;-58
2023/07/19 01:24:20;;;;;;;4.67;2.60;;;;;;;14.07;100.00;100510.25;686818;28;1107;-59
2023/07/19 01:24:40;;;;;;;4.60;2.50;;;;;;;14.05;100.00;100509.41;688288;28;920;-58
2023/07/19 01:25:02;;;;;;;4.90;2.60;;;;;;;14.07;100.00;100512.88;686824;28;1544;-58
2023/07/19 01:25:23;;;;;;;4.47;2.70;;;;;;;14.03;100.00;100511.22;687933;28;4567;-59
2023/07/19 01:25:44;;;;;;;4.70;2.60;;;;;;;14.03;100.00;100503.34;689952;28;862;-58
2023/07/19 01:26:05;;;;;;;5.00;2.53;;;;;;;14.02;100.00;100504.22;689586;28;1505;-58
2023/07/19 01:26:25;;;;;;;5.30;2.67;;;;;;;14.02;100.00;100510.34;690716;28;898;-58
2023/07/19 01:26:47;;;;;;;5.03;2.70;;;;;;;13.99;100.00;100505.16;687293;28;897;-59
2023/07/19 01:27:07;;;;;;;5.63;2.75;;;;;;;13.99;100.00;100506.94;687103;28;1465;-58
2023/07/19 01:27:27;;;;;;;5.23;2.80;;;;;;;13.96;100.00;100508.72;686534;28;795;-58
2023/07/19 01:27:48;;;;;;;4.57;2.60;;;;;;;13.96;100.00;100510.47;689068;28;995;-58
2023/07/19 01:28:09;;;;;;;4.88;2.65;;;;;;;13.94;100.00;100505.25;686247;28;4472;-58
2023/07/19 01:28:30;;;;;;;4.77;2.67;;;;;;;13.94;100.00;100507.00;688046;28;873;-58
2023/07/19 01:28:50;;;;;;;4.57;2.70;;;;;;;13.94;100.00;100507.91;687802;28;864;-58
2023/07/19 01:29:10;;;;;;;5.03;2.80;;;;;;;13.98;100.00;100510.44;686872;28;1568;-58
2023/07/19 01:29:31;;;;;;;5.43;2.75;;;;;;;13.96;100.00;100513.13;687864;28;1117;-58
2023/07/19 01:29:51;;;;;;;5.50;2.67;;;;;;;13.98;100.00;100516.56;687613;28;908;-58
2023/07/19 01:30:12;;;;;;;5.77;2.90;;;;;;;13.99;100.00;100512.19;689342;28;1538;-59
2023/07/19 01:30:32;;;;;;;5.68;2.58;;;;;;;14.00;100.00;100516.53;690618;28;944;-58
2023/07/19 01:30:53;;;;;;;6.10;2.60;;;;;;;14.03;100.00;100521.75;687694;28;1471;-59
2023/07/19 01:31:15;;;;;;;5.93;2.70;;;;;;;14.03;100.00;100517.34;684451;28;4594;-59
2023/07/19 01:31:35;;;;;;;5.38;2.70;;;;;;;14.04;100.00;100518.19;685356;28;914;-58
2023/07/19 01:31:56;;;;;;;6.00;2.80;;;;;;;14.03;100.00;100512.06;683846;28;1501;-57
2023/07/19 01:32:17;;;;;;;4.97;2.70;;;;;;;14.01;100.00;100518.25;682183;28;1241;-58
2023/07/19 01:32:38;;;;;;;6.05;2.80;;;;;;;14.02;100.00;100517.38;683265;28;1110;-58
2023/07/19 01:32:58;;;;;;;6.05;2.85;;;;;;;14.03;100.00;100516.47;686006;28;1515;-58
2023/07/19 01:33:19;;;;;;;5.37;2.63;;;;;;;14.04;100.00;100518.19;689755;28;869;-58
2023/07/19 01:33:39;;;;;;;5.53;2.63;;;;;;;14.02;100.00;100517.38;688222;28;830;-59
2023/07/19 01:34:00;;;;;;;5.30;2.70;;;;;;;14.02;100.00;100512.97;688846;28;1425;-58
2023/07/19 01:34:20;;;;;;;5.27;2.77;;;;;;;14.02;100.00;100510.34;689351;28;4240;-58
2023/07/19 01:34:40;;;;;;;4.45;2.60;;;;;;;14.02;100.00;100512.97;689754;28;1499;-58
2023/07/19 01:35:01;;;;;;;5.50;2.60;;;;;;;14.04;100.00;100513.81;686884;28;1477;-58
2023/07/19 01:35:21;;;;;;;5.43;2.40;;;;;;;14.05;100.00;100509.41;683542;28;1125;-59
2023/07/19 01:35:41;;;;;;;5.80;2.70;;;;;;;14.03;100.00;100511.22;682817;28;778;-58
2023/07/19 01:36:02;;;;;;;5.00;2.50;;;;;;;14.02;100.00;100514.75;684272;28;1537;-58
2023/07/19 01:36:23;;;;;;;5.03;2.50;;;;;;;13.99;100.00;100515.66;684509;28;1089;-58
2023/07/19 01:36:43;;;;;;;4.90;2.43;;;;;;;13.96;100.00;100515.75;688322;28;1276;-58
2023/07/19 01:37:04;;;;;;;4.35;2.47;;;;;;;13.95;100.00;100512.22;687178;28;1449;-58
2023/07/19 01:37:24;;;;;;;5.28;2.60;;;;;;;13.99;100.00;100509.56;687026;28;4502;-58
2023/07/19 01:37:44;;;;;;;4.43;2.63;;;;;;;13.99;100.00;100506.94;687597;28;762;-58
2023/07/19 01:38:05;;;;;;;5.00;3.10;;;;;;;13.95;100.00;100514.00;686959;28;1579;-58
2023/07/19 01:38:25;;;;;;;5.55;2.75;;;;;;;13.98;100.00;100511.31;687156;28;1015;-59
2023/07/19 01:38:46;;;;;;;6.00;2.67;;;;;;;13.96;100.00;100511.34;688053;28;1448;-58